Time;durP1;ratioP1;P1;durP2;ratioP2;P2;SDS_P1;SDS_P2;PMS_P1;PMS_P2;Temp;Humidity;BMP_temperature;BMP_pressure;BME280_temperature;BME280_humidity;BME280_pressure;Samples;Min_cycle;Max_cycle;Signal;HPM_P1;HPM_P2
2022/07/24 00:01:54;;;;;;;7.37;5.03;;;;;;;27.50;54.95;99418.06;5116477;27;20207;-67
2022/07/24 00:04:21;;;;;;;6.90;5.07;;;;;;;27.47;54.77;99410.47;5111924;27;20199;-66
2022/07/24 00:06:48;;;;;;;5.57;5.13;;;;;;;27.46;55.51;99411.47;5119500;27;20214;-66
2022/07/24 00:09:15;;;;;;;5.63;4.70;;;;;;;27.46;56.14;99411.47;5131961;27;20197;-66
2022/07/24 00:11:42;;;;;;;6.27;5.87;;;;;;;27.43;55.99;99414.38;5117401;27;20206;-66
2022/07/24 00:14:09;;;;;;;5.60;5.10;;;;;;;27.40;55.97;99415.47;5114355;27;20202;-66
2022/07/24 00:16:36;;;;;;;9.07;4.90;;;;;;;27.36;55.83;99423.84;5112486;27;20194;-67
2022/07/24 00:19:04;;;;;;;5.13;4.63;;;;;;;27.34;55.88;99421.34;5129286;27;20670;-66
2022/07/24 00:21:31;;;;;;;6.57;4.93;;;;;;;27.32;56.37;99414.59;5116332;27;20574;-66
2022/07/24 00:23:58;;;;;;;5.60;5.10;;;;;;;27.30;56.49;99420.03;5118708;27;20199;-66
2022/07/24 00:26:24;;;;;;;7.53;4.80;;;;;;;27.29;56.82;99420.16;5115564;27;20214;-66
2022/07/24 00:28:51;;;;;;;5.53;5.07;;;;;;;27.25;56.78;99421.44;5128937;27;20198;-67
2022/07/24 00:31:18;;;;;;;8.60;5.73;;;;;;;27.21;56.62;99427.97;5116572;27;20191;-66
2022/07/24 00:33:46;;;;;;;7.77;4.73;;;;;;;27.14;56.87;99414.63;5123040;27;20198;-66
2022/07/24 00:36:14;;;;;;;5.23;4.93;;;;;;;27.12;56.92;99412.13;5117507;27;20255;-66
2022/07/24 00:38:41;;;;;;;6.10;5.30;;;;;;;27.07;56.69;99419.66;5112507;27;20208;-67
2022/07/24 00:41:08;;;;;;;5.37;4.83;;;;;;;27.02;57.09;99415.81;5122147;27;20210;-66
2022/07/24 00:43:34;;;;;;;5.70;4.80;;;;;;;26.97;57.38;99418.91;5129235;27;20685;-66
2022/07/24 00:46:01;;;;;;;5.77;5.30;;;;;;;26.87;57.51;99412.88;5125119;28;20206;-66
2022/07/24 00:48:29;;;;;;;5.97;5.57;;;;;;;26.87;58.04;99414.69;5116148;28;20686;-67
2022/07/24 00:50:55;;;;;;;5.03;4.73;;;;;;;26.81;58.24;99410.84;5119471;28;20612;-66
2022/07/24 00:53:23;;;;;;;6.83;6.23;;;;;;;26.77;58.51;99417.34;5114396;28;20275;-66
2022/07/24 00:55:50;;;;;;;5.83;5.37;;;;;;;26.72;58.28;99416.13;5112288;28;20201;-66
2022/07/24 00:58:17;;;;;;;5.73;5.33;;;;;;;26.68;58.93;99414.78;5117648;28;20565;-67
2022/07/24 01:00:44;;;;;;;5.70;5.30;;;;;;;26.65;58.73;99415.91;5131471;28;20275;-66
2022/07/24 01:03:11;;;;;;;6.90;5.33;;;;;;;26.61;58.80;99417.16;5130841;27;20210;-66
2022/07/24 01:05:38;;;;;;;6.73;5.47;;;;;;;26.56;58.84;99419.38;5124316;28;20199;-66
2022/07/24 01:08:05;;;;;;;6.33;5.73;;;;;;;26.42;59.44;99401.50;5116984;28;20266;-67
2022/07/24 01:10:33;;;;;;;6.80;5.47;;;;;;;26.50;59.70;99418.19;5125640;28;20197;-67
2022/07/24 01:13:00;;;;;;;5.10;4.57;;;;;;;26.43;59.63;99416.31;5110785;28;20202;-66
2022/07/24 01:15:27;;;;;;;7.90;5.43;;;;;;;26.41;59.94;99410.34;5123307;28;20643;-67
2022/07/24 01:17:54;;;;;;;8.17;5.80;;;;;;;26.30;59.90;99402.66;5116645;28;20198;-66
2022/07/24 01:20:21;;;;;;;11.77;5.97;;;;;;;26.26;59.68;99412.66;5120612;28;20224;-66
2022/07/24 01:22:49;;;;;;;9.23;6.43;;;;;;;26.19;60.07;99405.47;5124448;28;20194;-67
2022/07/24 01:25:16;;;;;;;6.87;6.40;;;;;;;26.15;60.33;99404.06;5111873;28;20198;-66
2022/07/24 01:27:43;;;;;;;6.17;5.57;;;;;;;26.03;60.31;99414.78;5126760;28;20214;-66
2022/07/24 01:30:11;;;;;;;6.97;6.27;;;;;;;25.93;60.70;99413.97;5121248;27;20578;-66
2022/07/24 01:32:38;;;;;;;8.07;6.43;;;;;;;25.85;61.60;99413.06;5118222;27;20283;-66
2022/07/24 01:35:06;;;;;;;10.30;6.43;;;;;;;25.80;61.27;99410.84;5114570;27;20198;-66
2022/07/24 01:37:33;;;;;;;11.07;6.90;;;;;;;25.72;60.64;99413.31;5120112;27;20559;-66
2022/07/24 01:40:02;;;;;;;7.93;6.33;;;;;;;25.63;60.84;99414.19;5120740;27;20206;-66
2022/07/24 01:42:28;;;;;;;6.83;6.33;;;;;;;25.55;61.31;99411.44;5124401;27;20197;-67
2022/07/24 01:44:55;;;;;;;6.77;6.17;;;;;;;25.46;61.15;99407.81;5121128;27;20191;-66
2022/07/24 01:47:22;;;;;;;5.57;5.20;;;;;;;25.39;61.21;99416.41;5132122;27;20225;-66
2022/07/24 01:49:49;;;;;;;6.73;6.17;;;;;;;25.36;61.74;99403.56;5134973;27;20292;-66
2022/07/24 01:52:16;;;;;;;8.37;5.43;;;;;;;25.28;61.74;99406.03;5128563;27;20230;-66
2022/07/24 01:54:42;;;;;;;6.40;5.83;;;;;;;25.23;61.52;99405.66;5117139;27;20662;-66
2022/07/24 01:57:11;;;;;;;6.67;6.07;;;;;;;25.18;61.83;99410.47;5134311;27;20197;-66
2022/07/24 01:59:37;;;;;;;6.50;6.00;;;;;;;25.13;61.84;99404.81;5130333;27;20217;-66
2022/07/24 02:02:04;;;;;;;6.43;5.83;;;;;;;25.07;61.85;99401.75;5132348;27;20570;-66
2022/07/24 02:04:31;;;;;;;7.03;6.47;;;;;;;24.94;62.53;99395.94;5133960;27;20250;-66
2022/07/24 02:06:58;;;;;;;6.17;5.70;;;;;;;24.96;62.82;99404.53;5123958;27;20301;-66
2022/07/24 02:09:25;;;;;;;7.33;6.00;;;;;;;24.93;62.72;99404.81;5133452;27;20190;-66
2022/07/24 02:11:52;;;;;;;6.40;5.77;;;;;;;24.85;63.02;99402.03;5134183;27;20669;-66
2022/07/24 02:14:20;;;;;;;6.27;5.97;;;;;;;24.70;63.17;99392.88;5133853;27;20201;-66
2022/07/24 02:16:47;;;;;;;6.10;5.47;;;;;;;24.72;63.60;99403.22;5127169;27;20739;-66
2022/07/24 02:19:14;;;;;;;9.50;6.13;;;;;;;24.71;63.55;99402.41;5134058;27;20221;-66
2022/07/24 02:21:41;;;;;;;6.10;5.63;;;;;;;24.66;64.12;99399.34;5129291;27;20206;-66
2022/07/24 02:24:08;;;;;;;5.70;5.40;;;;;;;24.60;63.73;99399.88;5113448;28;20202;-66
2022/07/24 02:26:35;;;;;;;6.13;5.73;;;;;;;24.59;64.13;99406.06;5120651;27;20259;-67
2022/07/24 02:29:02;;;;;;;8.73;5.87;;;;;;;24.55;64.32;99399.47;5124199;27;20210;-66
2022/07/24 02:31:30;;;;;;;11.80;5.83;;;;;;;24.50;64.28;99406.88;5115847;27;20205;-66
2022/07/24 02:33:57;;;;;;;5.43;5.10;;;;;;;24.46;64.90;99401.09;5115574;27;20198;-66
2022/07/24 02:36:24;;;;;;;6.03;5.63;;;;;;;24.41;64.80;99391.97;5116872;27;20659;-66
2022/07/24 02:38:51;;;;;;;6.23;5.60;;;;;;;24.39;64.99;99401.78;5124290;27;20194;-66
2022/07/24 02:41:18;;;;;;;5.70;5.20;;;;;;;24.37;65.10;99390.56;5132395;27;20194;-66
2022/07/24 02:43:44;;;;;;;5.03;4.70;;;;;;;24.34;65.36;99398.69;5132787;27;20202;-66
2022/07/24 02:46:11;;;;;;;6.47;5.97;;;;;;;24.30;65.28;99395.53;5133382;27;20194;-67
2022/07/24 02:48:40;;;;;;;6.17;5.57;;;;;;;24.28;65.48;99396.63;5133290;27;20225;-66
2022/07/24 02:51:06;;;;;;;6.60;5.50;;;;;;;24.25;65.64;99407.38;5126172;27;20590;-66
2022/07/24 02:53:33;;;;;;;5.80;5.33;;;;;;;24.23;66.05;99398.81;5132959;27;20218;-66
2022/07/24 02:56:00;;;;;;;10.90;5.73;;;;;;;24.22;65.79;99398.00;5130248;27;20221;-66
2022/07/24 02:58:27;;;;;;;5.13;4.83;;;;;;;24.21;66.00;99395.47;5133112;27;20284;-66
2022/07/24 03:00:54;;;;;;;6.20;5.83;;;;;;;24.14;66.65;99389.09;5132977;27;20198;-66
2022/07/24 03:03:20;;;;;;;8.40;5.50;;;;;;;24.10;66.38;99392.94;5132791;27;20201;-66
2022/07/24 03:05:49;;;;;;;5.63;5.23;;;;;;;24.08;66.48;99393.06;5115371;27;20221;-66
2022/07/24 03:08:16;;;;;;;5.53;5.07;;;;;;;23.97;66.38;99380.88;5116520;27;20585;-66
2022/07/24 03:10:42;;;;;;;6.13;5.53;;;;;;;23.99;67.28;99386.84;5130042;27;20202;-66
2022/07/24 03:13:09;;;;;;;6.33;5.70;;;;;;;23.97;67.45;99388.72;5132689;27;20631;-66
2022/07/24 03:15:36;;;;;;;6.43;6.03;;;;;;;23.95;67.44;99385.44;5131545;27;20661;-66
2022/07/24 03:18:03;;;;;;;5.97;5.57;;;;;;;23.82;67.59;99378.75;5126672;27;20202;-66
2022/07/24 03:20:30;;;;;;;6.13;5.60;;;;;;;23.82;67.94;99400.53;5125569;27;20587;-67
2022/07/24 03:22:58;;;;;;;10.27;5.67;;;;;;;23.77;68.11;99391.41;5114541;27;20191;-66
2022/07/24 03:25:25;;;;;;;7.30;6.20;;;;;;;23.62;68.55;99388.28;5111363;27;20217;-66
2022/07/24 03:27:52;;;;;;;10.63;6.20;;;;;;;23.65;68.42;99389.84;5118333;27;20239;-66
2022/07/24 03:30:20;;;;;;;6.10;5.70;;;;;;;23.64;68.96;99391.63;5124478;27;20223;-66
2022/07/24 03:32:47;;;;;;;6.07;5.57;;;;;;;23.66;69.16;99392.31;5116598;27;20212;-66
2022/07/24 03:35:14;;;;;;;6.27;5.87;;;;;;;23.70;68.90;99391.09;5112043;27;20671;-66
2022/07/24 03:37:41;;;;;;;7.03;5.87;;;;;;;23.69;68.99;99384.19;5110427;27;20647;-66
2022/07/24 03:40:10;;;;;;;5.97;5.20;;;;;;;23.72;69.88;99389.16;5118851;27;20198;-66
2022/07/24 03:42:37;;;;;;;6.53;5.93;;;;;;;23.72;69.75;99404.88;5123806;27;20201;-66
2022/07/24 03:45:05;;;;;;;6.87;6.03;;;;;;;23.74;69.50;99408.22;5110396;28;20796;-66
2022/07/24 03:47:32;;;;;;;9.63;6.50;;;;;;;23.78;69.90;99395.69;5109592;28;20586;-66
2022/07/24 03:49:59;;;;;;;8.87;5.87;;;;;;;23.85;69.34;99405.50;5112285;27;22367;-66
2022/07/24 03:52:26;;;;;;;10.60;6.13;;;;;;;23.88;69.44;99410.47;5122213;27;20229;-66
2022/07/24 03:54:52;;;;;;;12.33;6.17;;;;;;;23.93;69.31;99405.69;5128609;27;20198;-66
2022/07/24 03:57:21;;;;;;;8.33;5.87;;;;;;;23.98;69.38;99407.91;5110871;28;20255;-66
2022/07/24 03:59:48;;;;;;;6.97;5.93;;;;;;;24.03;69.23;99403.94;5131624;27;20204;-66
2022/07/24 04:02:14;;;;;;;6.77;5.83;;;;;;;24.17;69.36;99409.84;5123853;27;20198;-66
2022/07/24 04:04:41;;;;;;;7.20;5.23;;;;;;;24.20;69.78;99405.13;5130324;27;20205;-66
2022/07/24 04:07:08;;;;;;;6.10;5.60;;;;;;;24.28;69.52;99407.94;5119144;27;20206;-66
2022/07/24 04:09:35;;;;;;;6.07;5.60;;;;;;;24.36;69.50;99407.28;5127081;27;20566;-66
2022/07/24 04:12:02;;;;;;;6.10;5.40;;;;;;;24.45;68.88;99398.63;5112069;28;20663;-66
2022/07/24 04:14:30;;;;;;;6.47;6.07;;;;;;;24.54;68.51;99405.66;5118633;27;20205;-66
2022/07/24 04:16:57;;;;;;;6.37;5.87;;;;;;;24.65;67.99;99400.31;5129117;27;20272;-66
2022/07/24 04:19:25;;;;;;;10.00;5.40;;;;;;;24.71;67.68;99399.78;5123616;27;20681;-66
2022/07/24 04:21:51;;;;;;;10.90;6.43;;;;;;;24.79;67.57;99397.28;5113470;27;20202;-66
2022/07/24 04:24:18;;;;;;;9.47;5.73;;;;;;;24.83;66.63;99403.97;5118760;27;20206;-66
2022/07/24 04:26:45;;;;;;;5.63;5.33;;;;;;;24.91;67.09;99406.72;5125057;27;20202;-66
2022/07/24 04:29:12;;;;;;;7.73;5.80;;;;;;;24.98;66.78;99402.59;5121117;27;20214;-66
2022/07/24 04:31:40;;;;;;;11.23;5.90;;;;;;;25.00;67.28;99379.69;5117014;27;20279;-67
2022/07/24 04:34:07;;;;;;;9.03;6.60;;;;;;;25.27;67.01;99393.88;5129908;27;20190;-66
2022/07/24 04:36:34;;;;;;;5.53;5.23;;;;;;;25.48;66.40;99410.31;5131685;27;20202;-66
2022/07/24 04:39:00;;;;;;;10.83;5.73;;;;;;;25.66;65.85;99403.41;5131401;27;20194;-66
2022/07/24 04:41:27;;;;;;;5.87;5.43;;;;;;;25.83;66.01;99394.78;5115599;27;20198;-66
2022/07/24 04:43:54;;;;;;;5.77;5.47;;;;;;;26.00;64.67;99407.19;5118117;27;20674;-66
2022/07/24 04:46:21;;;;;;;6.00;5.50;;;;;;;26.20;64.24;99401.88;5119477;28;20194;-66
2022/07/24 04:48:49;;;;;;;7.37;5.40;;;;;;;26.43;63.21;99414.47;5120961;28;20644;-66
2022/07/24 04:51:16;;;;;;;8.20;5.77;;;;;;;26.60;63.34;99407.59;5116119;28;20203;-66
2022/07/24 04:53:43;;;;;;;6.40;5.87;;;;;;;26.72;62.32;99403.00;5116937;28;20232;-67
2022/07/24 04:56:10;;;;;;;6.20;5.60;;;;;;;26.97;61.14;99408.38;5114746;28;20582;-66
2022/07/24 04:58:37;;;;;;;9.83;6.37;;;;;;;27.19;59.91;99414.16;5115947;28;20239;-67
2022/07/24 05:01:03;;;;;;;7.17;6.47;;;;;;;27.39;61.73;99413.84;5122908;28;20206;-67
2022/07/24 05:03:30;;;;;;;7.30;6.40;;;;;;;27.62;59.90;99409.78;5117857;27;20210;-66
2022/07/24 05:05:58;;;;;;;10.47;9.30;;;;;;;27.84;59.69;99416.34;5123147;28;20314;-66
2022/07/24 05:08:25;;;;;;;17.17;11.13;;;;;;;28.02;60.40;99411.81;5130873;27;20270;-66
2022/07/24 05:10:52;;;;;;;15.03;11.53;;;;;;;28.22;60.78;99414.25;5133907;27;20205;-66
2022/07/24 05:13:19;;;;;;;28.47;12.03;;;;;;;28.44;59.97;99418.94;5128975;27;20210;-66
2022/07/24 05:15:46;;;;;;;29.00;10.37;;;;;;;28.67;58.61;99414.78;5131663;27;20201;-66
2022/07/24 05:18:13;;;;;;;9.97;8.90;;;;;;;28.84;56.60;99408.56;5131115;27;20190;-66
2022/07/24 05:20:40;;;;;;;11.50;8.60;;;;;;;29.06;56.04;99410.56;5131534;27;20206;-66
2022/07/24 05:23:09;;;;;;;9.03;8.30;;;;;;;29.22;55.76;99416.84;5131250;27;20201;-66
2022/07/24 05:25:35;;;;;;;8.97;7.50;;;;;;;29.36;54.46;99409.13;5127236;27;20204;-65
2022/07/24 05:28:02;;;;;;;8.93;6.97;;;;;;;29.47;53.25;99400.03;5125131;27;20685;-66
2022/07/24 05:30:29;;;;;;;7.25;6.57;;;;;;;29.54;53.87;99395.72;5122414;27;20206;-66
2022/07/24 05:32:56;;;;;;;7.28;6.63;;;;;;;29.72;51.74;99399.03;5131999;27;20209;-65
2022/07/24 05:35:23;;;;;;;8.80;6.85;;;;;;;29.98;52.96;99407.59;5124741;27;20198;-66
2022/07/24 05:37:50;;;;;;;6.00;5.50;;;;;;;30.20;52.91;99408.66;5127056;27;20198;-66
2022/07/24 05:40:18;;;;;;;9.30;5.65;;;;;;;30.41;50.87;99400.16;5125809;27;20198;-66
2022/07/24 05:42:45;;;;;;;5.85;5.50;;;;;;;30.58;49.99;99407.84;5127419;27;20202;-65
2022/07/24 05:45:12;;;;;;;5.70;5.20;;;;;;;30.77;50.04;99398.66;5121622;27;20199;-66
2022/07/24 05:47:41;;;;;;;6.60;6.20;;;;;;;30.95;49.04;99399.25;5120746;27;20190;-66
2022/07/24 05:50:09;;;;;;;6.40;5.93;;;;;;;31.10;49.03;99397.47;5125592;27;20217;-65
2022/07/24 05:52:36;;;;;;;8.10;5.82;;;;;;;31.13;47.70;99397.09;5120739;27;20218;-66
2022/07/24 05:55:04;;;;;;;6.40;5.90;;;;;;;31.27;48.50;99402.63;5114978;27;20199;-66
2022/07/24 05:57:33;;;;;;;9.85;5.65;;;;;;;31.42;49.93;99400.84;5119462;27;20195;-66
2022/07/24 06:00:02;;;;;;;7.75;6.55;;;;;;;31.52;48.57;99385.53;5127866;27;20191;-66
2022/07/24 06:02:29;;;;;;;11.23;5.72;;;;;;;31.77;48.05;99397.53;5118745;27;20205;-66
2022/07/24 06:04:55;;;;;;;6.28;5.78;;;;;;;31.86;47.40;99395.66;5113300;28;20199;-66
2022/07/24 06:07:22;;;;;;;6.45;5.93;;;;;;;31.85;45.21;99392.16;5127441;27;20701;-66
2022/07/24 06:09:51;;;;;;;7.55;6.38;;;;;;;31.87;46.95;99384.84;5116387;27;20217;-66
2022/07/24 06:12:18;;;;;;;6.97;6.47;;;;;;;32.00;45.82;99382.38;5125292;27;20232;-66
2022/07/24 06:14:46;;;;;;;9.63;6.68;;;;;;;32.09;44.59;99381.28;5117853;27;20205;-66
2022/07/24 06:17:13;;;;;;;6.85;6.30;;;;;;;32.05;45.99;99390.63;5120404;27;20198;-66
2022/07/24 06:19:40;;;;;;;7.55;6.85;;;;;;;32.11;44.88;99384.59;5129218;27;20584;-66
2022/07/24 06:22:07;;;;;;;8.13;6.55;;;;;;;32.03;43.96;99384.66;5130583;27;20194;-66
2022/07/24 06:24:34;;;;;;;7.28;6.43;;;;;;;32.22;43.73;99389.44;5127484;27;20573;-65
2022/07/24 06:27:01;;;;;;;7.30;6.80;;;;;;;32.45;45.51;99385.81;5129185;27;20236;-66
2022/07/24 06:29:27;;;;;;;6.68;6.05;;;;;;;32.47;43.66;99381.16;5129756;27;20232;-64
2022/07/24 06:31:56;;;;;;;8.52;6.07;;;;;;;32.75;42.91;99374.16;5121252;27;20585;-66
2022/07/24 06:34:23;;;;;;;6.05;5.60;;;;;;;32.87;42.26;99375.28;5128256;27;20570;-66
2022/07/24 06:36:50;;;;;;;7.50;6.75;;;;;;;32.95;42.91;99377.84;5129025;27;20298;-65
2022/07/24 06:39:17;;;;;;;6.15;5.72;;;;;;;33.09;41.86;99371.63;5130935;27;20190;-66
2022/07/24 06:41:44;;;;;;;13.43;7.32;;;;;;;33.21;41.71;99371.97;5125582;27;20221;-65
2022/07/24 06:44:11;;;;;;;9.60;5.78;;;;;;;33.36;43.92;99366.56;5127571;27;20255;-65
2022/07/24 06:46:38;;;;;;;7.30;6.53;;;;;;;33.54;43.12;99369.56;5118828;27;20194;-66
2022/07/24 06:49:06;;;;;;;7.28;6.68;;;;;;;33.65;42.57;99358.41;5127706;27;20712;-65
2022/07/24 06:51:33;;;;;;;7.85;6.47;;;;;;;33.78;40.78;99356.66;5126761;27;20666;-66
2022/07/24 06:53:59;;;;;;;5.80;5.25;;;;;;;33.86;42.59;99357.53;5120822;27;20237;-66
2022/07/24 06:56:26;;;;;;;6.47;5.60;;;;;;;33.82;41.57;99359.75;5124754;27;20209;-66
2022/07/24 06:58:53;;;;;;;7.00;6.40;;;;;;;33.91;41.30;99355.91;5122157;27;20194;-66
2022/07/24 07:01:20;;;;;;;6.22;5.70;;;;;;;34.11;43.03;99356.84;5127096;27;20670;-66
2022/07/24 07:03:47;;;;;;;5.97;5.53;;;;;;;34.29;40.19;99354.47;5122637;27;20202;-65
2022/07/24 07:06:15;;;;;;;19.13;6.45;;;;;;;34.20;39.55;99349.50;5124861;27;20754;-65
2022/07/24 07:08:42;;;;;;;6.72;5.80;;;;;;;34.23;40.34;99360.59;5126444;27;20270;-65
2022/07/24 07:11:09;;;;;;;7.40;6.93;;;;;;;34.13;38.61;99354.81;5126305;27;20205;-65
2022/07/24 07:13:35;;;;;;;6.43;5.88;;;;;;;34.28;40.47;99360.78;5128599;27;20204;-66
2022/07/24 07:16:02;;;;;;;6.68;6.15;;;;;;;34.51;40.06;99359.66;5122004;27;20682;-66
2022/07/24 07:18:29;;;;;;;5.97;5.40;;;;;;;34.73;38.81;99347.88;5125527;27;20206;-66
2022/07/24 07:20:56;;;;;;;6.78;6.25;;;;;;;34.85;40.19;99346.22;5126958;27;20650;-66
2022/07/24 07:23:26;;;;;;;6.78;6.28;;;;;;;34.89;38.76;99347.47;5123918;27;20209;-65
2022/07/24 07:25:54;;;;;;;6.50;5.95;;;;;;;34.89;38.12;99344.81;5121444;27;20194;-65
2022/07/24 07:28:21;;;;;;;5.90;5.45;;;;;;;35.16;39.05;99341.16;5132464;27;20190;-65
2022/07/24 07:30:48;;;;;;;7.03;6.38;;;;;;;35.36;39.04;99341.13;5131008;27;20194;-68
2022/07/24 07:33:14;;;;;;;6.32;5.25;;;;;;;35.39;39.23;99335.38;5119769;27;20206;-68
2022/07/24 07:35:41;;;;;;;6.53;5.85;;;;;;;35.43;37.60;99335.78;5124553;27;20209;-66
2022/07/24 07:38:08;;;;;;;8.35;6.82;;;;;;;35.48;37.10;99338.69;5126199;27;20293;-67
2022/07/24 07:40:36;;;;;;;6.75;6.38;;;;;;;35.53;38.32;99330.88;5129884;27;20190;-67
2022/07/24 07:43:03;;;;;;;7.28;6.03;;;;;;;35.68;38.78;99334.13;5125765;27;20206;-67
2022/07/24 07:45:30;;;;;;;7.13;6.43;;;;;;;35.49;39.60;99334.97;5131697;27;20201;-66
2022/07/24 07:47:57;;;;;;;8.18;6.00;;;;;;;35.49;37.36;99332.28;5119677;27;20589;-66
2022/07/24 07:50:24;;;;;;;8.70;6.10;;;;;;;35.56;39.45;99325.09;5120029;27;20233;-66
2022/07/24 07:52:50;;;;;;;10.82;7.00;;;;;;;35.66;36.60;99326.34;5124028;27;20248;-66
2022/07/24 07:55:17;;;;;;;6.63;6.32;;;;;;;35.79;38.15;99320.16;5124292;27;20203;-66
2022/07/24 07:57:45;;;;;;;11.57;6.97;;;;;;;35.79;37.62;99314.81;5123443;27;20198;-66
2022/07/24 08:00:13;;;;;;;8.05;7.38;;;;;;;36.04;34.88;99325.59;5121109;27;20199;-66
2022/07/24 08:02:40;;;;;;;7.13;6.57;;;;;;;36.23;35.79;99327.38;5118171;27;20203;-66
2022/07/24 08:05:09;;;;;;;7.57;6.38;;;;;;;36.31;36.95;99325.31;5124130;27;20209;-66
2022/07/24 08:07:36;;;;;;;7.00;6.43;;;;;;;36.35;35.75;99319.53;5125756;27;20613;-66
2022/07/24 08:10:03;;;;;;;6.65;6.22;;;;;;;36.43;35.94;99324.63;5127005;27;20220;-66
2022/07/24 08:12:29;;;;;;;6.60;6.15;;;;;;;36.63;37.62;99317.34;5122372;27;20574;-66
2022/07/24 08:14:58;;;;;;;6.47;5.97;;;;;;;36.67;35.75;99318.56;5117415;27;20203;-66
2022/07/24 08:17:24;;;;;;;6.88;6.47;;;;;;;36.91;34.61;99327.59;5124303;27;20262;-66
2022/07/24 08:19:51;;;;;;;6.47;6.00;;;;;;;36.90;35.84;99324.13;5122528;27;20202;-66
2022/07/24 08:22:18;;;;;;;6.75;6.15;;;;;;;37.05;34.49;99322.00;5122683;27;20194;-65
2022/07/24 08:24:45;;;;;;;6.38;5.95;;;;;;;37.19;34.78;99320.81;5123812;27;20198;-66
2022/07/24 08:27:12;;;;;;;44.88;9.77;;;;;;;37.23;34.65;99319.34;5130225;27;20194;-66
2022/07/24 08:29:39;;;;;;;6.72;5.63;;;;;;;37.12;34.82;99316.59;5125162;27;20217;-66
2022/07/24 08:32:07;;;;;;;6.93;5.68;;;;;;;36.96;34.50;99312.59;5117082;28;20195;-66
2022/07/24 08:34:34;;;;;;;5.68;5.38;;;;;;;37.09;33.82;99306.34;5123533;27;20205;-66
2022/07/24 08:37:01;;;;;;;5.60;5.10;;;;;;;37.09;34.11;99312.50;5119815;27;20210;-68
2022/07/24 08:39:27;;;;;;;7.00;6.63;;;;;;;37.09;34.98;99307.16;5117246;27;20662;-69
2022/07/24 08:41:54;;;;;;;8.10;5.75;;;;;;;37.10;33.32;99313.28;5112316;27;20194;-66
2022/07/24 08:44:21;;;;;;;8.23;6.50;;;;;;;37.28;33.41;99311.50;5108500;28;20202;-66
2022/07/24 08:46:50;;;;;;;7.53;5.00;;;;;;;37.25;32.38;99306.59;5126933;27;20198;-66
2022/07/24 08:49:22;;;;;;;7.70;5.65;;;;;;;37.34;33.24;99305.25;5130006;28;20214;-67
2022/07/24 08:51:50;;;;;;;5.85;5.45;;;;;;;37.44;35.77;99299.41;5130333;28;20201;-67
2022/07/24 08:54:17;;;;;;;6.03;5.72;;;;;;;37.47;34.10;99298.16;5129282;28;20229;-66
2022/07/24 08:56:43;;;;;;;6.05;5.38;;;;;;;37.44;34.19;99298.59;5128354;28;20211;-67
2022/07/24 08:59:17;;;;;;;8.85;5.88;;;;;;;37.14;32.92;99277.91;5119258;28;20203;-66
2022/07/24 09:01:44;;;;;;;9.55;4.85;;;;;;;37.14;32.18;99288.59;5110666;28;20194;-67
2022/07/24 09:04:33;;;;;;;5.55;5.00;;;;;;;37.12;34.91;99285.34;5130527;28;20682;-67
2022/07/24 09:07:01;;;;;;;6.25;5.43;;;;;;;37.23;33.06;99286.44;5125025;28;20675;-66
2022/07/24 09:09:28;;;;;;;6.38;5.75;;;;;;;37.40;33.96;99281.34;5118556;28;20222;-66
2022/07/24 09:12:04;;;;;;;5.72;5.32;;;;;;;37.55;33.82;99284.50;5117213;28;20670;-66
2022/07/24 09:14:32;;;;;;;5.68;5.10;;;;;;;37.75;31.83;99285.09;5123851;27;20206;-65
2022/07/24 09:17:03;;;;;;;5.70;5.22;;;;;;;37.96;32.60;99276.63;5124796;27;20206;-67
2022/07/24 09:19:31;;;;;;;5.18;4.88;;;;;;;37.78;33.14;99263.22;5118739;28;20202;-67
2022/07/24 09:21:59;;;;;;;5.22;4.97;;;;;;;37.92;33.89;99279.97;5119636;28;20685;-65
2022/07/24 09:24:26;;;;;;;6.18;5.68;;;;;;;37.81;33.02;99284.19;5113123;28;20210;-66
2022/07/24 09:26:55;;;;;;;5.82;5.10;;;;;;;37.90;33.98;99277.50;5112310;28;20233;-67
2022/07/24 09:29:24;;;;;;;19.17;6.43;;;;;;;37.83;35.78;99264.22;5116529;28;20708;-66
2022/07/24 09:31:55;;;;;;;6.22;5.63;;;;;;;37.99;32.77;99276.19;5119225;28;20198;-66
2022/07/24 09:34:22;;;;;;;4.97;4.60;;;;;;;38.11;32.28;99263.66;5125503;28;20594;-66
2022/07/24 09:37:01;;;;;;;6.15;4.97;;;;;;;38.04;33.27;99267.47;5115159;28;20564;-66
2022/07/24 09:39:31;;;;;;;5.50;5.30;;;;;;;37.91;32.63;99265.78;5119224;28;20200;-67
2022/07/24 09:41:59;;;;;;;6.35;4.88;;;;;;;38.03;30.89;99265.84;5118536;28;20583;-66
2022/07/24 09:44:29;;;;;;;5.07;4.68;;;;;;;38.20;31.46;99256.09;5120954;28;20202;-67
2022/07/24 09:46:58;;;;;;;7.05;5.88;;;;;;;38.07;31.05;99262.47;5119334;27;20700;-67
2022/07/24 09:49:26;;;;;;;6.30;4.78;;;;;;;37.76;31.32;99238.56;5122776;28;20217;-67
2022/07/24 09:52:12;;;;;;;6.15;5.55;;;;;;;37.78;31.49;99252.53;5120721;28;20203;-67
2022/07/24 09:54:41;;;;;;;5.53;5.05;;;;;;;37.85;32.98;99247.91;5120832;27;20194;-67
2022/07/24 09:57:20;;;;;;;5.90;5.28;;;;;;;37.77;33.32;99245.56;5128002;27;21031;-67
2022/07/24 09:59:48;;;;;;;7.65;5.35;;;;;;;37.72;34.74;99242.72;5126399;27;20254;-66
2022/07/24 10:02:16;;;;;;;5.57;5.07;;;;;;;37.72;33.13;99248.06;5124989;27;20568;-66
2022/07/24 10:04:44;;;;;;;5.18;4.85;;;;;;;37.64;32.18;99248.41;5123629;27;20198;-67
2022/07/24 10:07:18;;;;;;;5.20;4.80;;;;;;;37.63;32.64;99241.41;5124055;27;20206;-67
2022/07/24 10:09:47;;;;;;;8.07;5.25;;;;;;;37.67;32.69;99239.91;5123140;27;20230;-66
2022/07/24 10:12:17;;;;;;;5.07;4.85;;;;;;;37.73;35.00;99233.66;5123822;27;20198;-66
2022/07/24 10:14:45;;;;;;;6.07;5.57;;;;;;;37.66;33.58;99233.75;5123644;27;20620;-66
2022/07/24 10:17:13;;;;;;;5.10;4.80;;;;;;;37.74;33.15;99220.03;5124002;27;20202;-66
2022/07/24 10:19:44;;;;;;;5.25;4.95;;;;;;;37.91;34.06;99216.75;5120697;27;20281;-67
2022/07/24 10:22:14;;;;;;;5.55;5.05;;;;;;;37.95;33.19;99213.44;5120800;27;20209;-66
2022/07/24 10:24:58;;;;;;;5.35;5.05;;;;;;;37.97;31.87;99211.31;5121475;27;20198;-66
2022/07/24 10:27:30;;;;;;;8.75;5.40;;;;;;;38.06;33.02;99207.31;5123028;27;20294;-66
2022/07/24 10:29:59;;;;;;;6.25;5.60;;;;;;;38.07;31.83;99186.69;5127079;27;20274;-66
2022/07/24 10:32:28;;;;;;;5.35;5.03;;;;;;;38.34;34.06;99210.16;5130880;27;20194;-66
2022/07/24 10:35:14;;;;;;;5.32;4.93;;;;;;;38.23;34.14;99210.13;5126905;27;20258;-66
2022/07/24 10:37:54;;;;;;;6.47;5.25;;;;;;;38.20;31.96;99200.69;5128476;27;20204;-66
2022/07/24 10:40:26;;;;;;;6.30;5.38;;;;;;;38.22;32.33;99203.97;5130522;27;20220;-66
2022/07/24 10:43:13;;;;;;;6.45;5.22;;;;;;;38.28;30.33;99197.69;5122695;27;20214;-67
2022/07/24 10:45:43;;;;;;;7.05;4.80;;;;;;;38.39;31.51;99195.31;5120624;27;20215;-68
2022/07/24 10:48:32;;;;;;;5.35;4.95;;;;;;;38.45;30.95;99189.03;5123081;27;20267;-67
2022/07/24 10:51:07;;;;;;;6.28;5.88;;;;;;;38.56;29.97;99185.53;5126763;27;20446;-61
2022/07/24 10:53:56;;;;;;;8.25;5.10;;;;;;;38.49;31.08;99184.81;5127154;27;20221;-61
2022/07/24 10:56:28;;;;;;;5.75;5.35;;;;;;;38.48;32.04;99167.13;5119457;27;20210;-60
2022/07/24 10:59:04;;;;;;;8.57;4.70;;;;;;;38.66;31.99;99180.41;5129892;27;20213;-60
2022/07/24 11:01:42;;;;;;;7.78;5.72;;;;;;;38.78;30.18;99173.19;5129475;27;20242;-61
2022/07/24 11:04:29;;;;;;;6.75;5.18;;;;;;;38.82;31.50;99177.06;5125612;27;20205;-61
2022/07/24 11:07:01;;;;;;;5.70;4.85;;;;;;;38.83;29.54;99166.13;5118607;27;20199;-60
2022/07/24 11:09:30;;;;;;;7.10;5.28;;;;;;;38.83;30.60;99157.25;5119315;27;20252;-60
2022/07/24 11:12:07;;;;;;;5.75;5.35;;;;;;;38.84;30.74;99161.56;5122507;27;20198;-60
2022/07/24 11:14:51;;;;;;;12.70;6.45;;;;;;;38.89;29.82;99166.22;5123927;27;20497;-67
2022/07/24 11:17:37;;;;;;;6.55;4.82;;;;;;;39.03;30.66;99155.03;5123779;27;20198;-68
2022/07/24 11:20:05;;;;;;;5.30;4.80;;;;;;;39.22;31.09;99153.00;5127892;27;20198;-68
2022/07/24 11:22:40;;;;;;;4.50;4.30;;;;;;;39.41;29.59;99148.31;5120952;27;20198;-67
2022/07/24 11:25:15;;;;;;;5.50;4.40;;;;;;;39.37;28.88;99145.28;5128727;27;20201;-68
2022/07/24 11:27:58;;;;;;;5.68;5.15;;;;;;;39.45;31.20;99138.72;5115120;27;20816;-67
2022/07/24 11:30:27;;;;;;;5.70;5.35;;;;;;;39.43;29.18;99138.13;5122757;27;20213;-68
2022/07/24 11:32:54;;;;;;;5.00;4.70;;;;;;;39.57;29.37;99131.44;5126651;27;20194;-68
2022/07/24 11:35:29;;;;;;;5.75;5.30;;;;;;;39.47;29.89;99128.56;5125364;27;20266;-67
2022/07/24 11:37:56;;;;;;;65.82;10.55;;;;;;;39.58;28.87;99120.50;5124569;27;20624;-67